Amunt
Inicio > meteoXarxa
Fes-te'n soci

METEOXARXA

Peníscola
Ubicació Gran Hotel
Comarca el Baix Maestrat
Altitud (msnm) 19
Posició geogràfica 40° 23' 30.48" N, 00° 24' 46.08" E
Model Davis Vantage Pro2 Plus
Presa de dades
Font de les dades Gran Hotel (Fco. Javier Pau Tomás/Jordi Maura Posas)
Estadístiques. Resum
Data Temperatura (ºC) Humitat (%) Pressió (hPa) Vent (km/h) Precipit. (mm)
Mínima Mitjana Màxima Mínima Mitjana Màxima Mínima Mitjana Màxima Predom. Mitjana Ràfega màxima Total Dies de pluja
Mínima Mitjana Màxima Mínima Mitjana Màxima
Últimes dades diàries
21-01-2017 7,8     9,6     11,4 1,0 47,0 93,0 1.013,0 1.015,5 1.018,0 37,0 5,6  
20-01-2017 8,8     10,1     11,3 83,0 88,0 93,0 1.015,0 1.016,5 1.018,0 58,0 14,0  
19-01-2017 2,7     6,7     10,7 45,0 68,0 91,0 1.016,0 1.018,5 1.021,0 68,0 5,0  
18-01-2017 1,2     5,8     10,3 19,0 37,5 56,0 1.018,0 1.019,5 1.021,0 26,0 0,0  
17-01-2017 3,2     7,5     11,7 19,0 42,0 65,0 1.011,0 1.014,5 1.018,0 34,0 0,0  
16-01-2017 11,1     14,6     18,0 39,0 53,0 67,0 1.012,0 1.016,0 1.020,0 34,0 0,0  
15-01-2017 7,6     11,5     15,4 36,0 48,5 61,0 1.019,0 1.021,0 1.023,0 34,0 0,0  
14-01-2017 7,8     10,8     13,7 30,0 42,0 54,0 1.018,0 1.020,5 1.023,0 48,0 0,0  
13-01-2017 9,2     13,4     17,6 30,0 47,5 65,0 1.013,0 1.016,5 1.020,0 45,0 0,0  
12-01-2017 8,4     12,2     15,9 67,0 76,0 85,0 1.014,0 1.018,0 1.022,0 32,0 0,0  
11-01-2017 9,3     12,2     15,1 53,0 63,0 73,0 1.011,0 1.017,0 1.023,0 23,0 0,0  
10-01-2017 6,9     11,7     16,4 44,0 60,0 76,0 1.006,0 1.012,5 1.019,0 52,0 0,0  
09-01-2017 5,8     10,6     15,4 47,0 65,5 84,0 1.019,0 1.022,5 1.026,0 23,0 0,0  
08-01-2017 2,2     8,6     14,9 31,0 61,0 91,0 1.022,0 1.025,0 1.028,0 18,0 0,0  
07-01-2017 2,4     8,2     13,9 47,0 68,5 90,0 1.027,0 1.028,0 1.029,0 16,0 0,0  
06-01-2017 3,1     8,6     14,1 41,0 63,5 86,0 1.024,0 1.026,5 1.029,0 16,0 0,0  
05-01-2017 5,8     10,8     15,7 34,0 59,5 85,0 1.018,0 1.021,0 1.024,0 23,0 0,0  
04-01-2017 7,3     10,5     13,7 71,0 83,5 96,0 1.019,0 1.021,0 1.023,0 15,0 0,0  
03-01-2017 3,8     8,1     12,3 81,0 87,0 93,0 1.020,0 1.021,5 1.023,0 18,0 0,0  
02-01-2017 3,4     7,7     12,0 73,0 81,0 89,0 1.020,0 1.021,0 1.022,0 21,0 0,0  
01-01-2017 3,2     7,5     11,9 72,0 80,0 88,0 1.021,0 1.025,0 1.029,0 21,0 0,0  
31-12-2016 4,2     9,9     15,6 63,0 75,5 88,0 1.029,0 1.031,0 1.033,0 23,0 0,0  
30-12-2016 3,5     9,5     15,5 60,0 71,5 83,0 1.032,0 1.033,5 1.035,0 18,0 0,0  
29-12-2016 1,9     8,5     15,1 48,0 67,0 86,0 1.030,0 1.032,0 1.034,0 15,0 0,0  
28-12-2016 4,9     11,3     17,8 52,0 70,0 88,0 1.033,0 1.034,5 1.036,0 15,0 0,0  
27-12-2016 5,3     10,3     15,3 58,0 73,0 88,0 1.030,0 1.032,0 1.034,0 16,0 0,0  
26-12-2016 6,2     12,6     18,9 52,0 71,5 91,0 1.028,0 1.029,5 1.031,0 15,0 0,0  
25-12-2016 7,6     11,9     16,2 69,0 79,5 90,0 1.029,0 1.031,5 1.034,0 16,0 0,0  
24-12-2016 7,7     12,2     16,6 72,0 81,0 90,0 1.033,0 1.034,5 1.036,0 13,0 0,0  
23-12-2016 7,3     12,4     17,5 72,0 81,5 91,0 1.033,0 1.033,5 1.034,0 16,0 0,0  
22-12-2016 9,3     14,4     19,6 50,0 65,5 81,0 1.027,0 1.030,0 1.033,0 19,0 0,0  
21-12-2016 9,4     13,7     17,9 47,0 60,5 74,0 1.019,0 1.023,5 1.028,0 23,0 0,0  
Dades del mes en curs (actualitzades fins l'últim dia disponible)
01/2017 1,2 5,8 11,1 9,8 10,3 13,9 18,0 1,0 63,0 96,0 1.006,0 1.019,9 1.029,0   68,0 24,6  
Últimes dades mensuals
12/2016 1,9 7,8 15,3 12,1 10,3 16,4 19,6 60,5 77,7 92,0 1.014,0 1.025,8 1.034,5 52,0 50,2 7
11/2016 6,8 10,8 16,2 14,9 13,6 18,9 25,8 42,0 65,0 88,0 1.001,0 1.013,7 1.029,0 52,0 40,6 10
10/2016 12,3 16,3 20,3 20,2 15,9 24,1 28,9 59,5 75,9 89,0 999,5 1.015,1 1.028,5 37,0 58,6 10
09/2016 14,1 19,4 23,6 23,4 25,4 28,0 32,2 42,0 60,1 78,0 1.009,5 1.016,4 1.026,0 55,0 15,4 5
08/2016 18,1 21,5 24,9 25,1 25,4 28,6 30,8 43,0 64,8 79,0 1.009,0 1.016,8 1.022,5 42,0 1,8 2
07/2016 18,2 21,3 24,1 25,0 25,3 28,6 32,4 43,5 64,6 79,5 1.012,0 1.015,7 1.020,0 52,0 0,6 1
06/2016 14,6 18,3 22,3 22,0 22,1 25,7 31,3 43,0 67,4 82,0 1.001,0 1.014,4 1.022,0 44,0 1,4 5
05/2016 10,6 14,7 19,6 18,2 14,1 21,7 28,1 42,5 67,8 85,5 1.003,5 1.012,6 1.021,0 40,0 27,8 7
04/2016 7,9 11,5 14,4 15,4 14,9 19,2 23,1 38,0 67,0 86,5 1.005,0 1.012,2 1.018,5 55,0 24,8 8
03/2016 5,9 9,4 12,7 13,5 13,0 17,5 24,3 35,5 61,2 88,5 1.001,5 1.013,1 1.020,5 55,0 45,2 5
02/2016 2,9 8,3 15,7 12,8 12,2 17,4 25,3 36,0 60,2 83,0 991,5 1.015,7 1.034,0 63,0 7,0 5
01/2016 4,2 8,9 13,7 12,8 13,3 16,7 23,2 41,0 64,0 85,5 1.002,0 1.018,0 1.031,5 58,0 0,8 3
12/2015 5,9 8,8 12,7 12,8 15,0 16,8 18,7 71,5 81,0 88,0 1.021,5 1.029,0 1.035,0 24,0 0,0 0
Dades de l'any en curs (actualitzades fins l'últim dia disponible)
2017 1,2 5,8 11,1 9,8 10,3 13,9 18,0 1,0 63,0 96,0 1.006,0 1.019,9 1.029,0   68,0 24,6  
Últimes dades anuals